Time;durP1;ratioP1;P1;durP2;ratioP2;P2;SDS_P1;SDS_P2;PMS_P1;PMS_P2;Temp;Humidity;BMP_temperature;BMP_pressure;BME280_temperature;BME280_humidity;BME280_pressure;Samples;Min_cycle;Max_cycle;Signal;HPM_P1;HPM_P2
2022/09/29 00:01:50;;;;;;;6.33;4.20;;;;;;;13.07;60.45;97289.72;6978474;28;20297;-83
2022/09/29 00:05:12;;;;;;;4.90;4.10;;;;;;;13.13;60.44;97280.56;6979013;28;20293;-84
2022/09/29 00:08:33;;;;;;;4.73;4.10;;;;;;;13.40;59.65;97287.53;6978289;28;20636;-82
2022/09/29 00:11:55;;;;;;;9.20;4.27;;;;;;;13.38;59.72;97278.03;6978815;28;20211;-83
2022/09/29 00:15:18;;;;;;;7.27;4.00;;;;;;;12.87;60.23;97202.97;6979192;28;20210;-83
2022/09/29 00:18:40;;;;;;;6.80;4.10;;;;;;;13.58;59.26;97280.91;6977963;28;20243;-83
2022/09/29 00:22:01;;;;;;;5.50;4.50;;;;;;;13.54;59.31;97268.97;6979147;28;20225;-83
2022/09/29 00:25:23;;;;;;;6.70;4.03;;;;;;;13.56;59.21;97281.16;6978818;28;20389;-84
2022/09/29 00:28:47;;;;;;;4.13;3.70;;;;;;;13.75;58.90;97279.66;6977945;28;20279;-83
2022/09/29 00:32:10;;;;;;;8.30;4.13;;;;;;;13.79;58.38;97267.22;6978221;28;20305;-83
2022/09/29 00:35:32;;;;;;;4.07;3.67;;;;;;;13.80;58.73;97271.56;6978240;28;20344;-83
2022/09/29 00:38:53;;;;;;;5.47;3.83;;;;;;;13.46;58.50;97264.84;6977390;28;20282;-84
2022/09/29 00:42:17;;;;;;;7.70;4.17;;;;;;;13.22;59.64;97252.75;6978114;28;20206;-83
2022/09/29 00:45:39;;;;;;;4.80;4.30;;;;;;;13.61;58.93;97266.84;6978191;28;20316;-83
2022/09/29 00:49:05;;;;;;;5.57;4.17;;;;;;;13.25;58.87;97172.94;6977581;28;20234;-83
2022/09/29 00:52:30;;;;;;;10.27;4.13;;;;;;;13.87;58.44;97252.38;6977660;28;20194;-83
2022/09/29 00:55:54;;;;;;;4.80;4.20;;;;;;;13.58;58.72;97230.25;6980945;28;20263;-84
2022/09/29 00:59:20;;;;;;;7.67;4.53;;;;;;;13.33;58.59;97243.66;6977094;28;20249;-83
2022/09/29 01:02:46;;;;;;;6.90;4.77;;;;;;;12.95;60.11;97256.56;6976767;28;20236;-83
2022/09/29 01:06:12;;;;;;;9.67;4.90;;;;;;;12.96;60.63;97239.28;6977425;28;20577;-83
2022/09/29 01:09:36;;;;;;;8.17;5.07;;;;;;;13.06;60.79;97242.09;6976486;28;20303;-83
2022/09/29 01:12:58;;;;;;;9.13;5.03;;;;;;;13.43;59.53;97251.03;6977164;28;20630;-83
2022/09/29 01:16:20;;;;;;;4.77;4.20;;;;;;;13.50;58.96;97257.00;6977214;28;20300;-83
2022/09/29 01:19:47;;;;;;;6.13;4.70;;;;;;;13.29;59.38;97241.72;6976328;28;20769;-83
2022/09/29 01:23:29;;;;;;;4.50;4.07;;;;;;;13.27;60.13;97246.59;6976631;28;20268;-83
2022/09/29 01:27:01;;;;;;;6.63;4.13;;;;;;;13.27;59.43;97224.94;6976864;28;20210;-83
2022/09/29 01:30:23;;;;;;;4.77;3.87;;;;;;;13.35;59.68;97235.28;6976440;28;20277;-83
2022/09/29 01:33:53;;;;;;;4.00;3.70;;;;;;;13.45;59.53;97252.38;6976727;28;20292;-82
2022/09/29 01:37:20;;;;;;;5.30;3.53;;;;;;;13.61;58.74;97245.19;6976304;28;20279;-83
2022/09/29 01:40:49;;;;;;;5.07;3.90;;;;;;;13.49;58.60;97223.72;6975871;28;20204;-83
2022/09/29 01:44:16;;;;;;;4.97;4.03;;;;;;;13.48;59.24;97237.53;6975548;28;20190;-83
2022/09/29 01:47:41;;;;;;;4.40;4.00;;;;;;;13.60;59.01;97236.25;6974685;28;20702;-84
2022/09/29 01:51:07;;;;;;;5.07;3.60;;;;;;;13.52;58.66;97249.47;6975105;28;20206;-83
2022/09/29 01:54:34;;;;;;;5.57;4.10;;;;;;;13.63;58.79;97243.84;6975735;28;20187;-83
2022/09/29 01:57:59;;;;;;;4.23;3.80;;;;;;;13.32;59.18;97244.72;6975108;28;20363;-83
2022/09/29 02:01:24;;;;;;;4.47;3.30;;;;;;;12.99;60.67;97242.28;6974996;28;20663;-83
2022/09/29 02:04:48;;;;;;;4.67;4.17;;;;;;;12.75;61.02;97237.47;6975577;28;20292;-83
2022/09/29 02:08:13;;;;;;;4.07;3.67;;;;;;;12.92;61.48;97247.06;6974593;28;20250;-83
2022/09/29 02:11:35;;;;;;;4.73;4.10;;;;;;;13.33;59.92;97250.97;6975660;28;20241;-83
2022/09/29 02:14:58;;;;;;;4.20;3.80;;;;;;;13.13;60.96;97267.03;6975965;28;20286;-83
2022/09/29 02:18:22;;;;;;;5.80;4.67;;;;;;;12.97;61.35;97266.09;6975875;28;20705;-83
2022/09/29 02:21:43;;;;;;;8.57;4.50;;;;;;;13.35;60.79;97252.34;6976494;28;20301;-83
2022/09/29 02:25:09;;;;;;;7.43;3.63;;;;;;;13.43;59.91;97261.84;6976525;28;20205;-83
2022/09/29 02:28:30;;;;;;;7.40;3.73;;;;;;;13.37;60.29;97268.31;6976413;28;20230;-83
2022/09/29 02:31:52;;;;;;;8.27;3.97;;;;;;;13.54;59.88;97264.38;6975410;28;20737;-83
2022/09/29 02:35:14;;;;;;;5.50;3.90;;;;;;;13.55;59.81;97276.00;6974713;28;20210;-83
2022/09/29 02:38:43;;;;;;;3.90;3.40;;;;;;;13.64;59.46;97260.91;6975242;28;20364;-84
2022/09/29 02:42:14;;;;;;;4.40;3.80;;;;;;;13.70;59.13;97268.78;6975593;28;20189;-83
2022/09/29 02:45:43;;;;;;;4.97;3.87;;;;;;;13.42;60.07;97269.16;6976305;28;20274;-83
2022/09/29 02:49:18;;;;;;;5.13;4.30;;;;;;;13.52;60.31;97266.50;6976008;28;20710;-83
2022/09/29 02:52:46;;;;;;;4.47;4.07;;;;;;;13.67;59.72;97265.78;6976212;28;20711;-83
2022/09/29 02:56:13;;;;;;;5.00;3.87;;;;;;;13.27;60.37;97258.22;7011754;28;20251;-84
2022/09/29 02:59:42;;;;;;;5.33;4.30;;;;;;;13.50;60.23;97243.47;7010193;28;20313;-83
2022/09/29 03:03:03;;;;;;;5.77;4.50;;;;;;;13.56;60.24;97253.25;7008925;28;20242;-83
2022/09/29 03:06:26;;;;;;;7.70;4.93;;;;;;;13.63;59.79;97241.13;7008871;28;20335;-83
2022/09/29 03:09:47;;;;;;;9.30;6.17;;;;;;;13.40;60.69;97243.44;7008794;28;20297;-83
2022/09/29 03:13:09;;;;;;;7.17;4.90;;;;;;;13.63;59.86;97240.34;7008721;28;20248;-84
2022/09/29 03:16:32;;;;;;;6.20;4.40;;;;;;;13.50;60.29;97240.78;7009070;28;20812;-83
2022/09/29 03:19:54;;;;;;;5.33;4.83;;;;;;;13.55;60.29;97236.22;7021005;28;20319;-83
2022/09/29 03:23:16;;;;;;;4.80;3.83;;;;;;;13.98;58.63;97240.53;7007910;28;20213;-83
2022/09/29 03:26:37;;;;;;;4.47;4.07;;;;;;;13.96;58.60;97239.94;7007680;28;20221;-83
2022/09/29 03:29:59;;;;;;;4.37;3.97;;;;;;;13.95;58.31;97222.06;7005149;28;20233;-83
2022/09/29 03:33:22;;;;;;;6.30;4.63;;;;;;;13.75;59.18;97235.53;7005745;28;20208;-83
2022/09/29 03:36:43;;;;;;;4.77;4.27;;;;;;;13.48;59.45;97195.03;7004989;28;20201;-83
2022/09/29 03:40:05;;;;;;;5.50;4.00;;;;;;;13.60;59.45;97227.31;7004967;28;20737;-83
2022/09/29 03:43:27;;;;;;;4.67;4.10;;;;;;;13.63;59.04;97202.44;7007838;28;20287;-83
2022/09/29 03:46:48;;;;;;;5.50;4.00;;;;;;;13.27;58.66;97138.34;7006395;28;20324;-83
2022/09/29 03:50:11;;;;;;;4.70;4.20;;;;;;;13.51;59.14;97216.16;7004660;28;20274;-84
2022/09/29 03:53:34;;;;;;;5.17;4.73;;;;;;;13.64;58.73;97223.00;7005885;28;20237;-84
2022/09/29 03:56:55;;;;;;;6.30;3.93;;;;;;;13.75;57.59;97209.25;7005480;28;20206;-83
2022/09/29 04:00:17;;;;;;;6.17;4.70;;;;;;;13.29;58.75;97223.59;7004805;28;20213;-84
2022/09/29 04:03:38;;;;;;;5.50;4.27;;;;;;;13.29;58.89;97210.03;7001989;28;20335;-83
2022/09/29 04:07:01;;;;;;;6.33;4.23;;;;;;;12.95;59.26;97200.63;7004843;28;20304;-83
2022/09/29 04:10:23;;;;;;;4.10;3.70;;;;;;;12.94;59.80;97223.31;7004230;28;20240;-83
2022/09/29 04:13:44;;;;;;;6.73;4.03;;;;;;;12.97;59.76;97230.09;7005090;28;20255;-83
2022/09/29 04:17:05;;;;;;;7.43;4.37;;;;;;;12.90;59.96;97226.75;7004048;28;20210;-83
2022/09/29 04:20:27;;;;;;;6.67;4.50;;;;;;;12.78;60.04;97223.41;7004178;28;20258;-82
2022/09/29 04:23:50;;;;;;;5.23;4.67;;;;;;;12.69;60.26;97216.88;7006029;28;20784;-83
2022/09/29 04:27:12;;;;;;;5.63;4.70;;;;;;;12.59;60.70;97212.19;7004641;28;20245;-83
2022/09/29 04:30:33;;;;;;;8.37;5.07;;;;;;;12.62;60.22;97222.47;7004751;28;20715;-83
2022/09/29 04:33:55;;;;;;;5.33;4.83;;;;;;;12.74;59.86;97225.03;6999688;28;20262;-83
2022/09/29 04:37:16;;;;;;;6.67;5.13;;;;;;;12.30;59.82;97221.63;7004825;28;20717;-83
2022/09/29 04:40:39;;;;;;;5.30;4.17;;;;;;;12.16;60.66;97231.16;7004852;28;20270;-83
2022/09/29 04:44:01;;;;;;;8.03;6.60;;;;;;;12.33;60.73;97221.09;7005151;28;20241;-85
2022/09/29 04:47:23;;;;;;;6.73;5.30;;;;;;;12.28;60.35;97223.72;7003168;28;20226;-85
2022/09/29 04:50:44;;;;;;;9.77;4.67;;;;;;;12.26;60.55;97230.47;7012796;28;20251;-86
2022/09/29 04:54:06;;;;;;;4.83;4.00;;;;;;;12.23;60.12;97226.38;7017522;28;20258;-84
2022/09/29 04:57:29;;;;;;;7.20;3.70;;;;;;;12.42;60.43;97233.09;7032859;28;20373;-86
2022/09/29 05:00:50;;;;;;;5.37;3.80;;;;;;;12.44;59.18;97236.34;7022851;28;20237;-85
2022/09/29 05:04:12;;;;;;;7.53;3.80;;;;;;;12.29;59.94;97248.88;7008760;28;20641;-86
2022/09/29 05:07:34;;;;;;;4.77;3.10;;;;;;;11.84;60.54;97191.63;7012339;28;20325;-87
2022/09/29 05:10:56;;;;;;;5.40;3.70;;;;;;;12.55;59.87;97245.38;7009505;28;20233;-86
2022/09/29 05:14:19;;;;;;;4.97;3.20;;;;;;;12.19;59.80;97211.75;7008933;28;20686;-85
2022/09/29 05:17:41;;;;;;;7.60;4.10;;;;;;;12.47;59.93;97256.66;7009993;28;20228;-85
2022/09/29 05:21:03;;;;;;;5.60;3.93;;;;;;;12.37;60.14;97262.75;7009850;28;20228;-86
2022/09/29 05:24:25;;;;;;;3.80;3.50;;;;;;;12.14;60.78;97265.72;7010344;28;20273;-85
2022/09/29 05:27:46;;;;;;;4.33;3.93;;;;;;;12.07;61.19;97266.97;7005148;28;20257;-85
2022/09/29 05:31:10;;;;;;;5.50;3.87;;;;;;;11.87;60.78;97237.03;7004579;28;20288;-84
2022/09/29 05:34:31;;;;;;;5.47;3.77;;;;;;;12.07;61.17;97275.09;7005084;28;20334;-85
2022/09/29 05:37:53;;;;;;;6.57;4.20;;;;;;;12.25;61.18;97272.91;7003646;28;20316;-84
2022/09/29 05:41:21;;;;;;;5.63;4.20;;;;;;;12.61;60.16;97279.50;7004093;28;20286;-85
2022/09/29 05:44:42;;;;;;;9.87;7.33;;;;;;;12.50;59.37;97250.72;7004688;28;20350;-84
2022/09/29 05:48:05;;;;;;;6.03;4.43;;;;;;;12.76;58.96;97266.94;7003145;28;20257;-84
2022/09/29 05:51:27;;;;;;;6.73;3.77;;;;;;;12.85;57.47;97260.00;7005334;28;20296;-85
2022/09/29 05:54:50;;;;;;;9.43;4.93;;;;;;;12.30;58.17;97248.63;7011288;28;20726;-84
2022/09/29 05:58:11;;;;;;;5.53;4.50;;;;;;;12.35;60.07;97274.88;7009463;28;20244;-85
2022/09/29 06:01:33;;;;;;;7.30;4.47;;;;;;;12.59;59.37;97270.81;7008719;28;20296;-86
2022/09/29 06:04:56;;;;;;;6.37;4.57;;;;;;;12.59;59.18;97284.34;7009503;28;20254;-86
2022/09/29 06:08:18;;;;;;;4.33;3.93;;;;;;;12.18;59.01;97282.25;7007575;28;20229;-88
2022/09/29 06:11:40;;;;;;;7.27;4.53;;;;;;;11.91;60.06;97243.56;7007863;28;20293;-87
2022/09/29 06:15:02;;;;;;;5.60;4.37;;;;;;;12.13;58.99;97174.97;7009042;28;20230;-87
2022/09/29 06:18:23;;;;;;;5.93;4.10;;;;;;;12.75;58.50;97286.16;7007669;28;20229;-86
2022/09/29 06:21:46;;;;;;;5.00;3.80;;;;;;;12.44;58.80;97268.78;7009706;28;20225;-86
2022/09/29 06:25:08;;;;;;;6.47;4.13;;;;;;;12.13;59.77;97218.19;7010879;28;20240;-87
2022/09/29 06:28:30;;;;;;;6.60;4.10;;;;;;;12.81;60.23;97285.91;7007009;28;20729;-86
2022/09/29 06:31:52;;;;;;;6.23;4.37;;;;;;;13.10;59.64;97281.88;7007026;28;20245;-87
2022/09/29 06:38:53;;;;;;;5.23;4.10;;;;;;;13.10;60.00;97272.97;6935476;28;20217;-86
2022/09/29 06:42:15;;;;;;;5.37;4.23;;;;;;;13.34;59.64;97290.50;6979803;28;20193;-85
2022/09/29 06:45:36;;;;;;;6.00;4.77;;;;;;;13.41;59.62;97280.25;7004876;28;20268;-84
2022/09/29 06:48:58;;;;;;;6.67;4.63;;;;;;;13.29;58.97;97293.16;7004315;28;20709;-84
2022/09/29 06:52:19;;;;;;;5.17;4.40;;;;;;;13.42;59.46;97296.25;7004754;28;20288;-84
2022/09/29 06:55:42;;;;;;;6.60;4.40;;;;;;;13.55;59.11;97268.72;7006094;28;20205;-85
2022/09/29 06:59:04;;;;;;;4.40;4.00;;;;;;;13.74;58.77;97285.34;7007950;28;20229;-84
2022/09/29 07:02:25;;;;;;;5.33;4.47;;;;;;;13.63;58.82;97300.72;7004060;28;20224;-83
2022/09/29 07:05:47;;;;;;;5.73;4.67;;;;;;;13.60;59.10;97293.13;7005529;28;20217;-85
2022/09/29 07:09:14;;;;;;;5.80;4.27;;;;;;;13.84;58.91;97296.22;7005025;28;20272;-85
2022/09/29 07:12:37;;;;;;;8.37;4.20;;;;;;;14.05;58.89;97300.69;7004597;28;20299;-84
2022/09/29 07:16:05;;;;;;;5.10;4.60;;;;;;;14.18;58.59;97298.34;7004993;28;20673;-84
2022/09/29 07:19:27;;;;;;;6.70;4.87;;;;;;;14.10;58.49;97300.72;7004934;28;20252;-84
2022/09/29 07:22:49;;;;;;;7.27;5.40;;;;;;;14.50;57.81;97290.88;7004949;28;20209;-85
2022/09/29 07:26:11;;;;;;;8.40;5.63;;;;;;;14.33;57.13;97286.78;7005058;28;20344;-85
2022/09/29 07:29:34;;;;;;;7.93;5.53;;;;;;;14.67;57.04;97283.34;7005019;28;20709;-82
2022/09/29 07:32:56;;;;;;;9.93;5.93;;;;;;;14.54;57.71;97296.59;7007226;28;20658;-85
2022/09/29 07:36:18;;;;;;;6.00;5.40;;;;;;;14.80;57.30;97266.56;7006192;28;20206;-84
2022/09/29 07:39:40;;;;;;;6.50;5.43;;;;;;;15.30;55.33;97298.34;7005925;28;20233;-82
2022/09/29 07:43:01;;;;;;;8.60;6.27;;;;;;;15.30;54.14;97265.78;7009509;28;20259;-81
2022/09/29 07:46:25;;;;;;;8.33;5.23;;;;;;;15.50;54.65;97299.19;7010571;28;20238;-82
2022/09/29 07:49:46;;;;;;;8.03;5.87;;;;;;;15.66;54.62;97300.81;7009015;28;20229;-82
2022/09/29 07:53:08;;;;;;;6.93;5.50;;;;;;;15.53;54.71;97297.84;7009749;28;20586;-83
2022/09/29 07:56:29;;;;;;;5.77;4.70;;;;;;;15.76;53.88;97273.63;7011985;28;20309;-82
2022/09/29 07:59:53;;;;;;;8.20;4.50;;;;;;;15.84;53.55;97294.00;7010289;28;20267;-82
2022/09/29 08:03:16;;;;;;;5.40;4.57;;;;;;;15.86;53.79;97306.22;7008058;28;20217;-83
2022/09/29 08:06:38;;;;;;;5.60;4.40;;;;;;;15.43;54.23;97286.97;7008205;28;20202;-82
2022/09/29 08:10:00;;;;;;;5.30;3.83;;;;;;;16.05;53.96;97314.63;7012064;28;20221;-83
2022/09/29 08:13:21;;;;;;;5.47;4.37;;;;;;;16.24;53.98;97311.03;7019811;28;20237;-82
2022/09/29 08:16:43;;;;;;;4.70;4.03;;;;;;;15.97;55.14;97307.00;7007438;28;20299;-82
2022/09/29 08:20:07;;;;;;;7.37;4.30;;;;;;;16.39;54.03;97310.19;7006069;28;20311;-83
2022/09/29 08:23:30;;;;;;;8.97;3.90;;;;;;;16.11;53.17;97302.63;7006760;28;20209;-82
2022/09/29 08:26:52;;;;;;;4.03;3.53;;;;;;;15.76;53.03;97251.88;7007149;28;20209;-82
2022/09/29 08:30:13;;;;;;;5.40;3.20;;;;;;;15.89;53.25;97302.97;7005695;28;20261;-81
2022/09/29 08:33:36;;;;;;;5.10;3.53;;;;;;;16.14;53.47;97324.66;7005770;28;20229;-84
2022/09/29 08:36:58;;;;;;;4.10;3.70;;;;;;;16.55;52.46;97337.06;6982257;28;20296;-83
2022/09/29 08:40:21;;;;;;;4.80;3.60;;;;;;;16.17;51.64;97318.63;6978336;28;20250;-83
2022/09/29 08:43:43;;;;;;;5.63;3.13;;;;;;;16.40;51.29;97314.53;7023795;28;20291;-83
2022/09/29 08:47:11;;;;;;;4.33;3.53;;;;;;;16.96;50.65;97327.59;7006163;28;20226;-83
2022/09/29 08:50:36;;;;;;;3.40;3.10;;;;;;;16.44;51.27;97296.53;7004515;28;20239;-80
2022/09/29 08:54:03;;;;;;;5.53;3.80;;;;;;;16.93;49.25;97311.81;7006313;28;20266;-80
2022/09/29 08:57:24;;;;;;;4.47;3.67;;;;;;;16.16;51.97;97338.78;7003129;28;20357;-82
2022/09/29 09:00:53;;;;;;;4.30;3.80;;;;;;;16.68;50.37;97343.81;6997966;28;20343;-80
2022/09/29 09:04:40;;;;;;;4.10;3.70;;;;;;;17.44;48.65;97343.09;6991367;28;20353;-80
2022/09/29 09:08:05;;;;;;;4.07;3.67;;;;;;;17.91;47.46;97291.44;6988824;28;20229;-80
2022/09/29 09:11:43;;;;;;;3.07;2.73;;;;;;;18.31;46.77;97344.75;7005261;28;20210;-80
2022/09/29 09:15:16;;;;;;;3.10;2.90;;;;;;;18.21;46.78;97342.94;7005085;28;20328;-80
2022/09/29 09:18:50;;;;;;;4.40;3.40;;;;;;;18.35;46.67;97318.56;7004653;28;20250;-80
2022/09/29 09:22:20;;;;;;;3.83;3.40;;;;;;;18.83;45.55;97333.78;7003939;28;20185;-79
2022/09/29 09:25:47;;;;;;;3.63;2.60;;;;;;;18.15;45.37;97333.19;7004962;28;20185;-80
2022/09/29 09:29:16;;;;;;;4.20;3.30;;;;;;;18.14;47.17;97339.75;7004268;28;20238;-80
2022/09/29 09:32:42;;;;;;;3.60;3.23;;;;;;;18.38;46.23;97335.16;7005689;28;20218;-79
2022/09/29 09:36:08;;;;;;;4.43;3.03;;;;;;;18.45;46.22;97343.00;7004915;28;20216;-81
2022/09/29 09:39:32;;;;;;;4.60;2.97;;;;;;;18.04;46.97;97356.22;7004592;28;20223;-78
2022/09/29 09:43:00;;;;;;;3.43;2.40;;;;;;;18.82;44.49;97354.81;7004626;28;20208;-82
2022/09/29 09:46:26;;;;;;;2.90;2.70;;;;;;;18.79;44.93;97365.50;7005076;28;20191;-80
2022/09/29 09:49:51;;;;;;;3.63;2.90;;;;;;;18.74;44.67;97362.84;7005125;28;20309;-82
2022/09/29 09:53:15;;;;;;;3.30;3.00;;;;;;;18.73;45.11;97344.81;7006379;28;20657;-80
2022/09/29 09:56:48;;;;;;;3.17;2.80;;;;;;;19.15;44.42;97333.88;7006354;28;20265;-80
2022/09/29 10:00:12;;;;;;;3.60;2.60;;;;;;;18.94;45.06;97352.50;7001219;28;20730;-83
2022/09/29 10:03:36;;;;;;;4.03;2.67;;;;;;;19.14;44.79;97360.41;7004422;28;20266;-80
2022/09/29 10:06:57;;;;;;;4.03;2.70;;;;;;;18.39;45.74;97361.34;7005429;28;20792;-81
2022/09/29 10:10:21;;;;;;;4.47;2.80;;;;;;;18.31;45.47;97359.25;7005506;28;20320;-81
2022/09/29 10:13:43;;;;;;;5.07;2.83;;;;;;;18.13;46.67;97346.31;7003015;28;20203;-81
2022/09/29 10:17:09;;;;;;;3.03;2.60;;;;;;;18.05;46.54;97318.84;7004712;28;20720;-81
2022/09/29 10:20:37;;;;;;;4.93;2.50;;;;;;;18.22;46.90;97363.66;7003406;28;20470;-82
2022/09/29 10:24:00;;;;;;;2.87;2.40;;;;;;;18.38;46.03;97348.78;7004541;28;20325;-82
2022/09/29 10:27:24;;;;;;;2.73;2.43;;;;;;;19.25;45.05;97351.00;7004232;28;20249;-82
2022/09/29 10:30:46;;;;;;;4.63;2.57;;;;;;;18.75;45.25;97329.00;7005278;28;20251;-81
2022/09/29 10:34:15;;;;;;;3.00;2.50;;;;;;;18.83;45.26;97361.09;7004902;28;20225;-81
2022/09/29 10:37:41;;;;;;;2.70;2.50;;;;;;;18.97;44.45;97353.78;7002696;28;20897;-81
2022/09/29 10:41:05;;;;;;;2.30;2.10;;;;;;;18.36;45.61;97348.28;7003030;28;20229;-81
2022/09/29 10:44:31;;;;;;;3.67;2.53;;;;;;;18.93;44.82;97350.03;7003626;28;20350;-81
2022/09/29 10:48:08;;;;;;;4.17;2.80;;;;;;;18.59;44.32;97301.06;7002180;28;20228;-81
2022/09/29 10:51:30;;;;;;;3.00;2.40;;;;;;;18.09;45.47;97326.16;7005063;28;20220;-82
2022/09/29 10:54:58;;;;;;;4.37;2.60;;;;;;;18.18;46.76;97348.16;7006090;28;20211;-82
2022/09/29 10:58:24;;;;;;;3.27;2.40;;;;;;;19.36;44.26;97357.94;7002911;28;20231;-82
2022/09/29 11:01:48;;;;;;;4.93;2.60;;;;;;;19.68;43.25;97363.44;7002349;28;20673;-82
2022/09/29 11:05:17;;;;;;;4.57;2.20;;;;;;;19.54;43.19;97362.59;7000073;28;20642;-82
2022/09/29 11:08:59;;;;;;;5.53;2.50;;;;;;;19.19;44.04;97354.88;6974698;28;20377;-83
2022/09/29 11:12:44;;;;;;;5.57;2.30;;;;;;;19.75;42.34;97350.19;6973966;28;20200;-83
2022/09/29 11:16:14;;;;;;;6.20;2.90;;;;;;;19.85;42.39;97365.63;6973693;28;20224;-82
2022/09/29 11:19:36;;;;;;;5.20;2.90;;;;;;;19.66;42.57;97373.03;6980962;28;20634;-81
2022/09/29 11:23:23;;;;;;;6.63;2.83;;;;;;;20.29;40.98;97363.25;7000720;28;20252;-81
2022/09/29 11:26:47;;;;;;;3.00;2.50;;;;;;;20.98;40.99;97361.06;7004121;28;20229;-82
2022/09/29 11:30:12;;;;;;;2.53;2.27;;;;;;;19.77;41.29;97344.44;7008261;28;20237;-82
2022/09/29 11:33:40;;;;;;;3.83;2.67;;;;;;;20.45;40.55;97298.88;7009094;28;20213;-83
2022/09/29 11:37:07;;;;;;;4.63;2.70;;;;;;;20.29;40.77;97352.31;7008191;28;20197;-83
2022/09/29 11:40:36;;;;;;;2.40;2.10;;;;;;;21.04;40.17;97359.03;7006527;28;20208;-82
2022/09/29 11:44:02;;;;;;;3.53;2.70;;;;;;;21.07;39.53;97356.50;7007720;28;20229;-82
2022/09/29 11:47:43;;;;;;;3.23;2.00;;;;;;;20.75;37.85;97356.56;7007723;28;20352;-82
2022/09/29 11:51:11;;;;;;;3.30;2.50;;;;;;;19.79;39.23;97345.75;7007604;28;20689;-82
2022/09/29 11:54:47;;;;;;;4.03;2.20;;;;;;;19.97;41.05;97372.25;7007192;28;20257;-83
2022/09/29 11:58:21;;;;;;;3.87;2.40;;;;;;;21.34;36.92;97361.91;7008561;28;20226;-82
2022/09/29 12:01:52;;;;;;;3.00;2.20;;;;;;;21.44;36.82;97353.47;6979472;28;20189;-83
2022/09/29 12:05:19;;;;;;;4.10;2.03;;;;;;;21.27;36.87;97367.84;6979305;28;20572;-82
2022/09/29 12:08:55;;;;;;;3.23;1.87;;;;;;;21.46;37.47;97356.69;6978909;28;20258;-82
2022/09/29 12:12:19;;;;;;;3.27;1.90;;;;;;;21.20;36.98;97331.78;6988365;28;20211;-82
2022/09/29 12:15:47;;;;;;;2.90;2.00;;;;;;;21.37;36.81;97344.84;7009553;28;20240;-83
2022/09/29 12:19:12;;;;;;;3.47;2.03;;;;;;;20.83;36.26;97340.25;7007352;28;20225;-82
2022/09/29 12:22:35;;;;;;;2.73;1.87;;;;;;;21.18;35.92;97341.47;7007986;28;20213;-82
2022/09/29 12:26:00;;;;;;;2.53;1.87;;;;;;;21.83;33.30;97307.81;7006962;28;20236;-82
2022/09/29 12:29:31;;;;;;;2.30;1.80;;;;;;;20.47;33.68;97335.81;7006701;28;20296;-83
2022/09/29 12:32:58;;;;;;;2.50;1.73;;;;;;;20.95;36.03;97341.69;7008717;28;20989;-83
2022/09/29 12:36:49;;;;;;;2.23;1.50;;;;;;;20.78;34.05;97315.69;7009018;28;20201;-84
2022/09/29 12:40:17;;;;;;;2.23;1.90;;;;;;;21.48;34.22;97324.31;7007978;28;20590;-82
2022/09/29 12:43:42;;;;;;;3.50;1.60;;;;;;;21.49;32.95;97334.16;7008341;28;20183;-83
2022/09/29 12:47:08;;;;;;;1.97;1.73;;;;;;;21.33;32.29;97343.03;7008560;28;20290;-82
2022/09/29 12:50:33;;;;;;;2.40;1.60;;;;;;;22.11;32.28;97331.22;6983824;28;20361;-82
2022/09/29 12:54:03;;;;;;;2.67;1.73;;;;;;;21.80;31.33;97324.09;6980989;28;20699;-83
2022/09/29 12:57:28;;;;;;;2.20;1.70;;;;;;;21.39;32.53;97298.72;6981506;28;20440;-83
2022/09/29 13:00:56;;;;;;;1.60;1.40;;;;;;;22.04;30.52;97317.16;7001963;28;20291;-82
2022/09/29 13:04:40;;;;;;;2.40;1.50;;;;;;;21.97;28.65;97340.66;7009153;28;20217;-82
2022/09/29 13:08:39;;;;;;;2.40;1.40;;;;;;;21.45;29.75;97339.44;6982003;28;20230;-81
2022/09/29 13:12:27;;;;;;;2.20;1.30;;;;;;;21.61;31.36;97335.19;6997666;28;20210;-82
2022/09/29 13:15:58;;;;;;;2.40;1.40;;;;;;;21.63;30.57;97291.84;7007231;28;20206;-84
2022/09/29 13:19:38;;;;;;;1.30;1.20;;;;;;;21.74;30.43;97347.28;7000261;28;20237;-83
2022/09/29 13:23:11;;;;;;;2.30;1.73;;;;;;;21.13;32.01;97336.88;7017098;28;20209;-85
2022/09/29 13:26:54;;;;;;;6.10;1.60;;;;;;;21.31;32.47;97354.31;7020914;28;20237;-81
2022/09/29 13:30:19;;;;;;;2.13;1.73;;;;;;;21.10;32.84;97347.66;6985012;28;20210;-82
2022/09/29 13:33:41;;;;;;;1.63;1.40;;;;;;;21.73;32.45;97337.44;6977886;28;20280;-83
2022/09/29 13:37:07;;;;;;;1.57;1.47;;;;;;;21.46;33.00;97346.53;6976832;28;20629;-82
2022/09/29 13:40:30;;;;;;;2.23;1.53;;;;;;;20.62;33.46;97296.31;6975615;28;20202;-84
2022/09/29 13:44:06;;;;;;;2.17;1.80;;;;;;;21.17;33.49;97344.50;6976838;28;20677;-82
2022/09/29 13:47:33;;;;;;;3.63;1.60;;;;;;;20.51;34.56;97341.47;6977386;28;20313;-82
2022/09/29 13:50:55;;;;;;;2.40;1.70;;;;;;;21.17;34.53;97356.25;6977038;28;20673;-82
2022/09/29 13:54:32;;;;;;;3.30;2.37;;;;;;;21.33;33.47;97333.69;6977601;28;20206;-82
2022/09/29 13:57:53;;;;;;;2.37;1.70;;;;;;;20.92;33.76;97347.78;6979313;28;20698;-82
2022/09/29 14:01:30;;;;;;;1.73;1.43;;;;;;;21.08;33.45;97360.03;7004231;28;20332;-82
2022/09/29 14:04:55;;;;;;;3.37;1.83;;;;;;;20.65;33.99;97359.53;6996686;28;20229;-82
2022/09/29 14:08:23;;;;;;;2.83;1.80;;;;;;;20.46;35.35;97356.06;7003247;28;20224;-82
2022/09/29 14:11:48;;;;;;;2.67;1.87;;;;;;;20.61;34.48;97336.59;6987780;28;20226;-84
2022/09/29 14:15:14;;;;;;;2.57;1.60;;;;;;;20.05;36.51;97321.53;6976277;28;20206;-84
2022/09/29 14:18:38;;;;;;;4.53;2.00;;;;;;;20.55;35.80;97351.50;6997924;28;20267;-82
2022/09/29 14:22:02;;;;;;;2.00;1.80;;;;;;;20.77;35.80;97377.06;7003863;28;20200;-82
2022/09/29 14:25:35;;;;;;;2.10;1.77;;;;;;;20.64;36.60;97381.75;7000542;28;20217;-81
2022/09/29 14:28:58;;;;;;;1.97;1.60;;;;;;;19.81;36.75;97370.09;7001063;28;20923;-82
2022/09/29 14:32:21;;;;;;;2.63;2.07;;;;;;;20.19;37.04;97380.66;7003474;28;20574;-81
2022/09/29 14:35:54;;;;;;;1.63;1.37;;;;;;;20.19;37.55;97388.06;7003741;28;20294;-83
2022/09/29 14:39:17;;;;;;;2.43;1.67;;;;;;;20.01;37.71;97388.88;7002941;28;20706;-82
2022/09/29 14:42:39;;;;;;;2.60;1.67;;;;;;;19.71;38.28;97403.88;7002012;28;20229;-82
2022/09/29 14:54:07;;;;;;;3.03;2.13;;;;;;;19.44;38.99;97408.38;6997790;28;20815;-82
2022/09/29 14:57:40;;;;;;;3.27;1.90;;;;;;;19.06;39.38;97412.97;7002560;28;20410;-83
2022/09/29 15:01:10;;;;;;;2.27;1.80;;;;;;;19.21;40.06;97414.72;7002041;28;20223;-82
2022/09/29 15:04:37;;;;;;;2.33;2.00;;;;;;;19.25;39.31;97415.75;7002876;28;20266;-81
2022/09/29 15:08:00;;;;;;;2.23;1.90;;;;;;;19.40;39.53;97402.69;7002049;28;20403;-82
2022/09/29 15:11:26;;;;;;;2.93;1.80;;;;;;;19.41;39.36;97403.50;7002449;28;20336;-81
2022/09/29 15:14:50;;;;;;;4.43;2.00;;;;;;;19.27;39.71;97414.34;6989392;28;20197;-81
2022/09/29 15:18:25;;;;;;;2.77;1.67;;;;;;;19.32;40.46;97417.03;7001443;28;20235;-82
2022/09/29 15:21:52;;;;;;;6.80;2.10;;;;;;;19.61;39.75;97417.69;7003281;28;20252;-82
2022/09/29 15:25:20;;;;;;;2.50;1.93;;;;;;;19.31;39.95;97409.09;7002519;28;20320;-81
2022/09/29 15:28:43;;;;;;;2.57;2.00;;;;;;;18.94;41.17;97422.69;7000903;28;20698;-82
2022/09/29 15:32:16;;;;;;;3.33;2.80;;;;;;;18.92;41.43;97411.25;7002905;28;20234;-81
2022/09/29 15:35:43;;;;;;;3.93;2.73;;;;;;;19.15;42.06;97424.84;7002759;28;20279;-82
2022/09/29 15:39:06;;;;;;;4.77;2.20;;;;;;;18.90;41.75;97422.44;7001969;28;20664;-82
2022/09/29 15:42:29;;;;;;;2.90;1.80;;;;;;;18.80;41.21;97416.31;6980021;28;20197;-81
2022/09/29 15:45:56;;;;;;;4.17;2.20;;;;;;;19.50;40.74;97431.78;6979420;28;20206;-82
2022/09/29 15:49:20;;;;;;;6.73;2.10;;;;;;;19.71;40.56;97442.16;7001732;28;20228;-82
2022/09/29 15:52:45;;;;;;;5.07;2.10;;;;;;;19.57;41.07;97429.53;7001876;28;20212;-82
2022/09/29 15:56:07;;;;;;;2.33;1.90;;;;;;;19.60;41.14;97446.16;7003217;28;20246;-82
2022/09/29 15:59:49;;;;;;;3.27;2.07;;;;;;;19.71;40.41;97455.00;7001910;28;20359;-81
2022/09/29 16:03:13;;;;;;;2.90;2.33;;;;;;;19.32;41.03;97430.69;7006713;28;20724;-81
2022/09/29 16:06:36;;;;;;;2.33;2.10;;;;;;;19.28;41.75;97439.78;7002132;28;20240;-81
2022/09/29 16:10:01;;;;;;;2.70;1.83;;;;;;;19.34;41.29;97460.47;7007561;28;20225;-82
2022/09/29 16:13:25;;;;;;;2.33;2.10;;;;;;;19.02;41.45;97460.25;7006517;28;20721;-81
2022/09/29 16:16:49;;;;;;;4.20;2.70;;;;;;;19.26;41.87;97456.44;7005838;28;20223;-81
2022/09/29 16:20:14;;;;;;;4.47;2.93;;;;;;;19.70;41.18;97453.38;7006102;28;20233;-81